Time;durP1;ratioP1;P1;durP2;ratioP2;P2;SDS_P1;SDS_P2;PMS_P1;PMS_P2;Temp;Humidity;BMP_temperature;BMP_pressure;BME280_temperature;BME280_humidity;BME280_pressure;Samples;Min_cycle;Max_cycle;Signal;HPM_P1;HPM_P2
2022/07/09 00:00:21;;;;;;;6.57;3.22;;;12.40;99.90;;;;;;5013506;28;20046;-86
2022/07/09 00:03:08;;;;;;;6.18;2.80;;;12.40;99.90;;;;;;5040247;28;20048;-84
2022/07/09 00:05:58;;;;;;;6.25;3.25;;;12.30;1.00;;;;;;5041678;28;20049;-84
2022/07/09 00:08:46;;;;;;;9.75;3.47;;;12.10;99.90;;;;;;5043112;28;20045;-84
2022/07/09 00:11:33;;;;;;;7.90;3.28;;;12.00;99.90;;;;;;5034241;28;20092;-83
2022/07/09 00:14:20;;;;;;;6.72;2.95;;;11.90;99.90;;;;;;5033011;28;20049;-85
2022/07/09 00:17:07;;;;;;;5.85;2.95;;;11.80;99.90;;;;;;5033723;28;20053;-83
2022/07/09 00:19:54;;;;;;;7.82;2.95;;;12.00;1.00;;;;;;5035411;28;20041;-84
2022/07/09 00:22:42;;;;;;;6.82;3.10;;;12.10;1.00;;;;;;5027857;28;20102;-84
2022/07/09 00:25:29;;;;;;;7.82;2.95;;;12.20;1.00;;;;;;5037223;28;20332;-83
2022/07/09 00:28:16;;;;;;;7.22;2.55;;;12.30;99.90;;;;;;5030215;28;20037;-84
2022/07/09 00:31:04;;;;;;;6.57;2.78;;;12.30;99.90;;;;;;5025468;28;20125;-83
2022/07/09 00:33:53;;;;;;;6.50;2.83;;;12.20;99.90;;;;;;5024944;28;20053;-83
2022/07/09 00:36:40;;;;;;;11.90;3.70;;;12.10;1.00;;;;;;5034965;28;20052;-83
2022/07/09 00:39:28;;;;;;;8.00;3.00;;;12.00;1.00;;;;;;5040966;28;20104;-84
2022/07/09 00:42:17;;;;;;;7.57;3.13;;;12.00;99.90;;;;;;5037507;28;20139;-84
2022/07/09 00:45:07;;;;;;;8.23;3.60;;;11.90;1.00;;;;;;5038599;28;20049;-83
2022/07/09 00:47:54;;;;;;;9.55;3.33;;;11.80;99.90;;;;;;5022727;28;20355;-84
2022/07/09 00:50:43;;;;;;;7.65;3.10;;;11.80;42.80;;;;;;5037880;28;20427;-82
2022/07/09 00:53:31;;;;;;;11.32;3.17;;;11.70;99.90;;;;;;5035189;28;20058;-83
2022/07/09 00:56:20;;;;;;;8.15;3.45;;;11.80;99.90;;;;;;5059714;28;20079;-81
2022/07/09 00:59:12;;;;;;;6.38;2.72;;;11.70;99.90;;;;;;5049224;28;20454;-82
2022/07/09 01:02:00;;;;;;;14.32;3.28;;;11.70;99.90;;;;;;5027567;28;20104;-82
2022/07/09 01:04:48;;;;;;;8.98;4.28;;;11.70;99.90;;;;;;5044631;28;20049;-85
2022/07/09 01:07:35;;;;;;;8.30;4.03;;;11.70;99.90;;;;;;5035911;28;20516;-85
2022/07/09 01:10:22;;;;;;;11.75;3.55;;;11.60;99.90;;;;;;5037170;28;20130;-85
2022/07/09 01:13:09;;;;;;;9.30;3.75;;;11.50;1.00;;;;;;5031930;28;20045;-81
2022/07/09 01:15:56;;;;;;;6.88;3.13;;;11.40;99.90;;;;;;5047404;28;20080;-83
2022/07/09 01:18:45;;;;;;;7.60;3.78;;;11.40;99.90;;;;;;5048192;28;20056;-84
2022/07/09 01:21:32;;;;;;;12.02;3.83;;;11.30;99.90;;;;;;5047359;28;20041;-84
2022/07/09 01:24:20;;;;;;;9.82;3.15;;;11.30;99.90;;;;;;5041955;28;20042;-84
2022/07/09 01:27:10;;;;;;;6.47;2.90;;;11.40;99.90;;;;;;5057578;28;20045;-84
2022/07/09 01:29:57;;;;;;;7.55;3.78;;;11.50;99.90;;;;;;5031326;28;20041;-84
2022/07/09 01:32:44;;;;;;;10.98;3.55;;;11.50;65.60;;;;;;5044009;28;20056;-84
2022/07/09 01:35:34;;;;;;;11.98;3.78;;;11.60;20.60;;;;;;5042933;28;20076;-85
2022/07/09 01:38:21;;;;;;;6.15;3.33;;;11.60;1.00;;;;;;5024355;28;20049;-84
2022/07/09 01:41:08;;;;;;;9.30;3.72;;;11.60;29.50;;;;;;5038957;28;20049;-85
2022/07/09 01:43:58;;;;;;;6.93;3.03;;;11.50;96.40;;;;;;5023476;28;20073;-84
2022/07/09 01:46:47;;;;;;;8.77;3.38;;;11.40;21.00;;;;;;5033068;28;20454;-84
2022/07/09 01:49:34;;;;;;;10.93;2.90;;;11.50;99.90;;;;;;5030442;28;20049;-84
2022/07/09 01:52:22;;;;;;;8.32;2.95;;;11.50;1.00;;;;;;5030119;28;20120;-84
2022/07/09 01:55:09;;;;;;;9.70;2.80;;;11.60;99.90;;;;;;5032188;28;20038;-84
2022/07/09 01:57:56;;;;;;;8.82;2.97;;;11.70;99.90;;;;;;5035408;28;20053;-85
2022/07/09 02:00:44;;;;;;;8.10;2.80;;;11.70;99.90;;;;;;5033260;28;20121;-85
2022/07/09 02:03:31;;;;;;;7.22;3.47;;;11.70;1.00;;;;;;5014549;28;20049;-85
2022/07/09 02:06:18;;;;;;;5.38;2.97;;;11.70;99.90;;;;;;5032143;28;20068;-84
2022/07/09 02:09:06;;;;;;;8.93;3.83;;;11.60;1.00;;;;;;5025752;28;20042;-85
2022/07/09 02:11:53;;;;;;;9.60;3.90;;;11.50;99.90;;;;;;5032243;28;20081;-85
2022/07/09 02:14:42;;;;;;;10.00;4.15;;;11.30;99.90;;;;;;5031178;28;20120;-85
2022/07/09 02:17:32;;;;;;;6.57;3.75;;;11.20;6.70;;;;;;5032807;28;20068;-85
2022/07/09 02:20:20;;;;;;;6.50;3.50;;;11.10;1.00;;;;;;5041090;28;20108;-84
2022/07/09 02:23:08;;;;;;;4.45;3.42;;;11.00;99.90;;;;;;5027318;28;20092;-85
2022/07/09 02:25:55;;;;;;;9.63;4.60;;;10.80;1.00;;;;;;5032820;28;20319;-85
2022/07/09 02:28:42;;;;;;;7.20;3.70;;;10.70;75.70;;;;;;5029310;28;20078;-85
2022/07/09 02:31:29;;;;;;;9.55;4.22;;;10.70;99.90;;;;;;5026810;28;20072;-85
2022/07/09 02:34:16;;;;;;;7.93;4.38;;;10.70;99.90;;;;;;5029900;28;20046;-86
2022/07/09 02:37:08;;;;;;;7.53;3.70;;;10.70;99.90;;;;;;5038038;28;20053;-86
2022/07/09 02:39:57;;;;;;;7.22;3.78;;;10.60;99.90;;;;;;5028847;28;20053;-85
2022/07/09 02:42:44;;;;;;;6.80;4.00;;;10.50;99.90;;;;;;5035523;28;20152;-84
2022/07/09 02:45:31;;;;;;;10.90;4.25;;;10.50;99.90;;;;;;5035932;28;20123;-86
2022/07/09 02:48:19;;;;;;;7.88;4.18;;;10.50;99.90;;;;;;5021803;28;20053;-86
2022/07/09 02:51:08;;;;;;;8.82;5.13;;;10.50;1.00;;;;;;5032192;28;20050;-86
2022/07/09 02:53:58;;;;;;;6.05;3.97;;;10.50;99.90;;;;;;5023994;28;20077;-86
2022/07/09 02:56:47;;;;;;;7.30;3.95;;;10.50;99.90;;;;;;5031881;28;20094;-86
2022/07/09 02:59:37;;;;;;;8.13;4.07;;;10.50;99.90;;;;;;5031455;28;20455;-86
2022/07/09 03:02:24;;;;;;;10.00;4.30;;;10.50;99.90;;;;;;5032414;28;20065;-86
2022/07/09 03:05:12;;;;;;;9.77;4.82;;;10.40;99.90;;;;;;5030832;28;20124;-86
2022/07/09 03:08:02;;;;;;;7.63;4.22;;;10.50;99.90;;;;;;5037170;28;20117;-87
2022/07/09 03:10:52;;;;;;;9.82;3.80;;;10.50;99.90;;;;;;5029026;28;20109;-87
2022/07/09 03:13:39;;;;;;;4.82;3.85;;;10.60;61.00;;;;;;5032170;28;20434;-87
2022/07/09 03:16:26;;;;;;;9.30;3.95;;;10.80;99.90;;;;;;5043205;28;20442;-86
2022/07/09 03:19:14;;;;;;;6.05;3.78;;;10.90;1.00;;;;;;5037804;28;20045;-86
2022/07/09 03:22:01;;;;;;;8.00;3.83;;;11.00;99.90;;;;;;5032164;28;20092;-86
2022/07/09 03:24:48;;;;;;;9.70;3.88;;;10.90;99.90;;;;;;5035499;28;20045;-86
2022/07/09 03:27:36;;;;;;;7.85;3.85;;;10.90;1.00;;;;;;5023768;28;20144;-86
2022/07/09 03:30:24;;;;;;;5.80;3.40;;;10.90;99.90;;;;;;5039446;28;20094;-86
2022/07/09 03:33:11;;;;;;;7.05;4.25;;;10.90;99.90;;;;;;5019249;28;20083;-87
2022/07/09 03:35:58;;;;;;;5.82;3.92;;;10.90;1.00;;;;;;5029250;28;20155;-84
2022/07/09 03:38:45;;;;;;;7.85;3.78;;;10.90;99.90;;;;;;5015256;28;20046;-86
2022/07/09 03:41:33;;;;;;;12.93;4.22;;;11.00;99.90;;;;;;5035510;28;20054;-87
2022/07/09 03:44:22;;;;;;;8.52;3.88;;;10.90;99.90;;;;;;5042586;28;20084;-85
2022/07/09 03:47:09;;;;;;;5.72;3.83;;;10.90;99.90;;;;;;5036463;28;20050;-85
2022/07/09 03:49:59;;;;;;;7.25;3.63;;;10.90;99.90;;;;;;5029584;28;20155;-86
2022/07/09 03:52:48;;;;;;;5.30;3.70;;;10.90;99.90;;;;;;5034755;28;20486;-87
2022/07/09 03:55:35;;;;;;;7.78;3.80;;;10.90;99.90;;;;;;5029971;28;20053;-86
2022/07/09 03:58:25;;;;;;;7.63;3.42;;;10.90;99.90;;;;;;5031950;28;20502;-86
2022/07/09 04:05:12;;;;;;;5.80;3.70;;;11.00;99.90;;;;;;5032890;28;20185;-86
2022/07/09 04:08:02;;;;;;;6.97;3.55;;;11.00;99.90;;;;;;5035971;28;20076;-85
2022/07/09 04:10:52;;;;;;;7.25;3.72;;;11.00;99.90;;;;;;5035345;28;20080;-86
2022/07/09 04:13:39;;;;;;;12.93;3.65;;;11.10;29.60;;;;;;5020289;28;20056;-86
2022/07/09 04:16:27;;;;;;;5.38;3.50;;;11.10;1.00;;;;;;5030436;28;20099;-87
2022/07/09 04:19:14;;;;;;;8.85;3.92;;;11.10;99.90;;;;;;5016421;28;20045;-87
2022/07/09 04:22:02;;;;;;;11.45;3.63;;;11.10;60.70;;;;;;5031798;28;20057;-86
2022/07/09 04:24:51;;;;;;;9.20;3.75;;;11.00;1.00;;;;;;5026256;28;20131;-85
2022/07/09 04:35:58;;;;;;;8.60;4.05;;;11.10;99.90;;;;;;5030773;28;20022;-88
2022/07/09 04:56:50;;;;;;;9.68;4.43;;;11.20;1.00;;;;;;5374400;23;20065;-85
2022/07/09 04:59:40;;;;;;;7.60;4.20;;;11.20;99.90;;;;;;5003173;28;20125;-87
2022/07/09 05:02:30;;;;;;;4.68;3.50;;;11.20;99.90;;;;;;5016631;28;20181;-89
2022/07/09 05:05:21;;;;;;;8.43;4.00;;;11.20;1.00;;;;;;5012079;28;20061;-88
2022/07/09 05:08:09;;;;;;;7.88;3.75;;;11.30;1.00;;;;;;5015046;28;20058;-87
2022/07/09 05:10:58;;;;;;;12.80;4.70;;;11.30;1.00;;;;;;5004857;28;20108;-87
2022/07/09 05:13:46;;;;;;;7.78;4.20;;;11.30;99.90;;;;;;5000078;28;20053;-89
2022/07/09 05:16:34;;;;;;;10.75;4.15;;;11.30;1.00;;;;;;5011626;28;20074;-89
2022/07/09 05:19:21;;;;;;;8.60;3.92;;;11.30;1.00;;;;;;5008023;28;20050;-87
2022/07/09 05:22:11;;;;;;;8.82;3.65;;;11.50;1.00;;;;;;5019497;28;20076;-88
2022/07/09 05:24:58;;;;;;;6.32;3.90;;;11.60;99.90;;;;;;5015673;28;20118;-89
2022/07/09 05:27:47;;;;;;;8.25;4.13;;;11.80;1.00;;;;;;5004028;28;20069;-86
2022/07/09 05:30:37;;;;;;;8.98;4.00;;;11.90;1.00;;;;;;4999472;28;20053;-86
2022/07/09 05:33:24;;;;;;;8.82;3.83;;;12.10;99.90;;;;;;5014265;28;20146;-86
2022/07/09 05:36:11;;;;;;;10.55;3.22;;;12.20;17.80;;;;;;5008554;28;20042;-86
2022/07/09 05:38:59;;;;;;;14.65;3.20;;;12.30;99.90;;;;;;5011176;28;20212;-87
2022/07/09 05:41:47;;;;;;;8.25;3.22;;;12.60;99.90;;;;;;5008494;28;20042;-87
2022/07/09 05:44:34;;;;;;;7.60;3.70;;;12.80;99.90;;;;;;5012991;28;20161;-86
2022/07/09 05:47:21;;;;;;;7.85;4.32;;;12.90;99.90;;;;;;5010915;28;20173;-86
2022/07/09 05:50:09;;;;;;;8.43;3.72;;;12.90;99.90;;;;;;5012297;28;20046;-87
2022/07/09 05:52:56;;;;;;;10.85;3.58;;;13.00;99.90;;;;;;5012617;28;20120;-87
2022/07/09 05:55:44;;;;;;;6.63;3.78;;;13.20;99.90;;;;;;5015651;28;20399;-87
2022/07/09 05:58:31;;;;;;;8.73;3.70;;;13.40;8.60;;;;;;4998480;28;20663;-89
2022/07/09 06:01:21;;;;;;;16.83;3.55;;;13.40;1.70;;;;;;4999197;28;20049;-87
2022/07/09 06:04:13;;;;;;;6.43;3.22;;;13.50;56.10;;;;;;5011957;28;20073;-88
2022/07/09 06:07:00;;;;;;;9.70;3.45;;;13.50;1.00;;;;;;5002463;28;20049;-88
2022/07/09 06:09:50;;;;;;;11.93;3.40;;;13.70;99.90;;;;;;5011599;28;20045;-88
2022/07/09 06:12:37;;;;;;;26.33;12.38;;;13.90;99.90;;;;;;4979023;28;20363;-88
2022/07/09 06:15:24;;;;;;;27.65;10.38;;;14.10;99.90;;;;;;5009663;28;20101;-86
2022/07/09 06:18:14;;;;;;;13.57;7.00;;;14.20;66.20;;;;;;4986686;28;20046;-84
2022/07/09 06:21:01;;;;;;;8.45;4.25;;;14.20;28.30;;;;;;5012076;28;20050;-85
2022/07/09 06:23:48;;;;;;;9.25;3.92;;;14.40;1.00;;;;;;5010020;28;20042;-83
2022/07/09 06:26:36;;;;;;;11.90;3.60;;;14.50;99.90;;;;;;5007406;28;20069;-88
2022/07/09 06:29:23;;;;;;;9.25;3.25;;;14.70;1.00;;;;;;5013304;28;20557;-87
2022/07/09 06:32:12;;;;;;;9.55;3.45;;;14.80;99.90;;;;;;5009448;28;20172;-88
2022/07/09 06:35:02;;;;;;;9.50;3.13;;;15.10;1.80;;;;;;5011915;28;20184;-88
2022/07/09 06:37:52;;;;;;;12.68;2.90;;;15.40;1.00;;;;;;4996876;28;20050;-87
2022/07/09 06:40:42;;;;;;;5.40;2.60;;;15.70;99.90;;;;;;5010324;28;20102;-86
2022/07/09 06:43:29;;;;;;;12.10;3.42;;;15.80;99.90;;;;;;4995629;28;20057;-86
2022/07/09 06:46:18;;;;;;;4.68;2.60;;;15.90;99.90;;;;;;5013984;28;20132;-89
2022/07/09 06:49:08;;;;;;;11.80;2.47;;;16.20;99.90;;;;;;5012707;28;20113;-90
2022/07/09 06:51:57;;;;;;;7.90;2.25;;;16.40;1.00;;;;;;5015224;28;20053;-88
2022/07/09 06:54:45;;;;;;;7.65;2.92;;;16.80;99.90;;;;;;5007583;28;20064;-91
2022/07/09 06:57:32;;;;;;;6.35;1.98;;;17.20;99.90;;;;;;5014403;28;20177;-91
2022/07/09 07:00:20;;;;;;;9.30;2.10;;;17.40;99.90;;;;;;5011772;28;20057;-92
2022/07/09 07:03:07;;;;;;;6.15;2.33;;;17.70;1.00;;;;;;5016246;28;20053;-88
2022/07/09 07:05:54;;;;;;;6.18;2.05;;;18.00;1.00;;;;;;5017040;28;20041;-88
2022/07/09 07:08:41;;;;;;;6.28;1.98;;;18.20;1.00;;;;;;5018371;28;20042;-90
2022/07/09 07:11:28;;;;;;;15.30;2.50;;;18.70;1.00;;;;;;5017570;28;20046;-91
2022/07/09 07:14:16;;;;;;;7.53;1.85;;;19.10;99.90;;;;;;5015708;28;20057;-88
2022/07/09 07:17:04;;;;;;;7.60;2.33;;;19.40;99.90;;;;;;5015455;28;20065;-92
2022/07/09 07:19:51;;;;;;;6.82;2.05;;;19.70;99.90;;;;;;5014538;28;20436;-91
2022/07/09 07:22:38;;;;;;;5.45;1.90;;;20.40;99.90;;;;;;5024850;28;20057;-91
2022/07/09 07:25:25;;;;;;;5.57;2.25;;;21.20;99.90;;;;;;5024711;28;20062;-91
2022/07/09 07:28:15;;;;;;;9.93;2.10;;;21.40;99.90;;;;;;5024708;28;20049;-89
2022/07/09 07:31:02;;;;;;;5.15;1.73;;;20.90;99.90;;;;;;5029231;28;20046;-89
2022/07/09 07:33:53;;;;;;;7.45;1.90;;;20.70;99.90;;;;;;5013328;28;20380;-90
2022/07/09 07:36:40;;;;;;;7.10;1.77;;;20.60;99.90;;;;;;4996073;28;20324;-90
2022/07/09 07:39:27;;;;;;;4.32;1.40;;;20.50;99.90;;;;;;5018080;28;20081;-88
2022/07/09 07:42:15;;;;;;;6.10;1.58;;;20.70;99.90;;;;;;5018374;28;20085;-91
2022/07/09 07:45:02;;;;;;;5.65;1.83;;;21.40;99.90;;;;;;4997433;28;20140;-90
2022/07/09 07:47:50;;;;;;;6.28;1.77;;;22.20;99.90;;;;;;5018705;28;20046;-87
2022/07/09 07:50:38;;;;;;;6.07;2.00;;;22.70;99.90;;;;;;5018039;28;20045;-90
2022/07/09 07:53:26;;;;;;;5.53;1.80;;;23.10;99.90;;;;;;5010802;28;20049;-90
2022/07/09 07:56:15;;;;;;;4.30;1.60;;;23.70;99.90;;;;;;5009255;28;20038;-88
2022/07/09 07:59:03;;;;;;;4.10;1.25;;;24.30;99.90;;;;;;5020908;28;20180;-90
2022/07/09 08:01:50;;;;;;;5.70;1.83;;;24.90;99.90;;;;;;5025242;28;20065;-91
2022/07/09 08:04:38;;;;;;;4.00;1.23;;;25.10;84.90;;;;;;5017070;28;20161;-88
2022/07/09 08:07:25;;;;;;;6.47;1.80;;;24.10;53.50;;;;;;5020885;28;20463;-89
2022/07/09 08:10:15;;;;;;;4.40;1.13;;;23.30;51.20;;;;;;5002152;28;20157;-89
2022/07/09 08:13:04;;;;;;;4.00;1.20;;;23.30;66.30;;;;;;5008216;28;20068;-90
2022/07/09 08:15:51;;;;;;;5.93;1.50;;;24.20;57.60;;;;;;5001126;28;20046;-90
2022/07/09 08:18:38;;;;;;;4.40;1.23;;;25.40;36.40;;;;;;4999160;28;20149;-90
2022/07/09 08:21:27;;;;;;;6.00;1.20;;;26.10;24.40;;;;;;5014711;28;20479;-91
2022/07/09 08:24:15;;;;;;;5.18;1.30;;;26.30;9.10;;;;;;5008653;28;20049;-90
2022/07/09 08:27:02;;;;;;;6.45;1.50;;;26.50;1.00;;;;;;5014005;28;20046;-86
2022/07/09 08:29:49;;;;;;;5.15;0.90;;;25.80;1.00;;;;;;5001738;28;20416;-90
2022/07/09 08:32:38;;;;;;;3.67;0.88;;;25.70;1.00;;;;;;5012968;28;20049;-90
2022/07/09 08:35:25;;;;;;;4.28;0.90;;;25.60;1.00;;;;;;4999814;28;20120;-87
2022/07/09 08:38:13;;;;;;;4.15;1.00;;;25.30;1.00;;;;;;5023994;28;20045;-89
2022/07/09 08:41:03;;;;;;;5.78;1.45;;;25.90;1.00;;;;;;5013700;28;20052;-88
2022/07/09 08:43:52;;;;;;;7.93;1.40;;;25.70;1.00;;;;;;5017168;28;20057;-87
2022/07/09 08:46:42;;;;;;;3.80;1.20;;;24.70;1.00;;;;;;5009412;28;20117;-91
2022/07/09 08:49:34;;;;;;;3.45;0.98;;;24.60;1.00;;;;;;5014079;28;20058;-89
2022/07/09 08:52:23;;;;;;;7.97;1.35;;;25.30;1.00;;;;;;5019762;28;20057;-90
2022/07/09 08:55:10;;;;;;;5.78;1.30;;;25.20;1.00;;;;;;5012550;28;20129;-89
2022/07/09 08:57:59;;;;;;;4.60;1.38;;;24.60;1.00;;;;;;5014998;28;20046;-91
2022/07/09 09:00:48;;;;;;;3.20;1.35;;;25.10;1.00;;;;;;5016185;28;20124;-91
2022/07/09 09:03:35;;;;;;;4.30;1.02;;;25.90;1.00;;;;;;5022950;28;20085;-88
2022/07/09 09:06:23;;;;;;;5.70;1.20;;;25.60;1.00;;;;;;5018487;28;20046;-90
2022/07/09 09:09:20;;;;;;;6.47;1.20;;;26.70;1.00;;;;;;5016216;28;20049;-90
2022/07/09 09:12:10;;;;;;;5.50;0.98;;;27.70;1.00;;;;;;5013581;28;20058;-90
2022/07/09 09:14:57;;;;;;;5.13;0.85;;;28.40;1.00;;;;;;4995470;28;20061;-88
2022/07/09 09:17:48;;;;;;;3.65;1.00;;;28.30;1.00;;;;;;5019781;28;20045;-90
2022/07/09 09:20:38;;;;;;;4.05;1.15;;;27.70;1.00;;;;;;5018360;28;20439;-88
2022/07/09 09:23:27;;;;;;;3.53;0.93;;;28.20;1.00;;;;;;4998599;28;20093;-92
2022/07/09 09:26:15;;;;;;;2.75;0.80;;;27.60;1.00;;;;;;5017289;28;20042;-90
2022/07/09 09:29:03;;;;;;;3.53;0.90;;;27.50;1.00;;;;;;5025637;28;20038;-89
2022/07/09 09:31:51;;;;;;;2.47;0.93;;;28.60;1.00;;;;;;5024948;28;20056;-87
2022/07/09 09:34:41;;;;;;;3.55;1.00;;;29.50;1.00;;;;;;5017925;28;20057;-91
2022/07/09 09:37:31;;;;;;;7.95;0.98;;;28.80;1.00;;;;;;5002393;28;20057;-90
2022/07/09 09:40:19;;;;;;;1.60;0.70;;;28.10;1.00;;;;;;5015145;28;20124;-91
2022/07/09 09:43:08;;;;;;;2.67;0.63;;;28.80;1.00;;;;;;5010423;28;20038;-90
2022/07/09 09:45:58;;;;;;;2.13;0.70;;;29.40;1.00;;;;;;5020456;28;20046;-91
2022/07/09 09:48:47;;;;;;;2.80;0.63;;;29.20;1.00;;;;;;5016671;28;20046;-89
2022/07/09 09:51:36;;;;;;;2.47;0.70;;;28.30;1.00;;;;;;5013438;28;20455;-91
2022/07/09 09:54:24;;;;;;;2.85;0.85;;;28.50;1.00;;;;;;5007322;28;20089;-90
2022/07/09 09:57:16;;;;;;;2.75;0.68;;;29.10;1.00;;;;;;5011046;28;20147;-88
2022/07/09 10:00:04;;;;;;;2.03;0.70;;;28.70;1.00;;;;;;5026736;28;20034;-87
2022/07/09 10:02:52;;;;;;;3.00;0.93;;;28.90;1.00;;;;;;5007519;28;20046;-91
2022/07/09 10:05:40;;;;;;;1.35;0.60;;;29.10;1.00;;;;;;5000512;28;20042;-90
2022/07/09 10:08:27;;;;;;;4.80;1.08;;;29.80;1.00;;;;;;5019144;28;20112;-91
2022/07/09 10:11:15;;;;;;;3.08;0.90;;;30.20;1.00;;;;;;5012767;28;20042;-89
2022/07/09 10:14:02;;;;;;;2.40;0.70;;;30.60;1.00;;;;;;5001534;28;20096;-88
2022/07/09 10:16:52;;;;;;;1.38;0.50;;;31.10;1.00;;;;;;4999555;28;20050;-90
2022/07/09 10:19:56;;;;;;;1.45;0.63;;;31.10;1.00;;;;;;5015795;28;20081;-88
2022/07/09 10:22:45;;;;;;;4.40;0.90;;;29.10;1.00;;;;;;5005502;28;20081;-92
2022/07/09 10:25:46;;;;;;;1.33;0.77;;;27.40;1.00;;;;;;4994386;28;20042;-90
2022/07/09 10:28:41;;;;;;;3.17;1.15;;;26.10;1.00;;;;;;5010686;28;20540;-90
2022/07/09 10:31:30;;;;;;;2.38;0.98;;;25.30;1.00;;;;;;5017788;28;20065;-90
2022/07/09 10:34:55;;;;;;;2.85;0.60;;;25.00;1.00;;;;;;5007165;28;20077;-90
2022/07/09 10:37:46;;;;;;;2.42;0.80;;;26.00;1.00;;;;;;5018206;28;20054;-90
2022/07/09 10:41:00;;;;;;;2.28;0.60;;;28.00;1.00;;;;;;5013966;28;20054;-91
2022/07/09 10:43:52;;;;;;;1.83;0.80;;;30.00;1.00;;;;;;5009582;28;20060;-90
2022/07/09 10:46:39;;;;;;;1.45;0.50;;;31.00;1.00;;;;;;5012361;28;20058;-90
2022/07/09 10:49:28;;;;;;;1.85;0.60;;;31.40;1.00;;;;;;5023314;28;20061;-90
2022/07/09 10:52:18;;;;;;;2.40;0.70;;;31.20;1.00;;;;;;5017445;28;20050;-89
2022/07/09 10:55:08;;;;;;;3.25;0.65;;;30.80;1.00;;;;;;5022548;28;20069;-90
2022/07/09 10:57:58;;;;;;;1.75;0.52;;;31.40;1.00;;;;;;5024090;28;20050;-91
2022/07/09 11:01:02;;;;;;;4.50;0.52;;;31.70;1.00;;;;;;5019162;28;20128;-90
2022/07/09 11:03:50;;;;;;;1.58;0.63;;;31.80;1.00;;;;;;5019941;28;20053;-93
2022/07/09 11:06:47;;;;;;;1.65;0.57;;;31.70;1.00;;;;;;5011387;28;20116;-92
2022/07/09 11:09:35;;;;;;;2.67;0.75;;;31.10;1.00;;;;;;5023309;28;20191;-91
2022/07/09 11:12:22;;;;;;;2.55;0.63;;;31.00;1.00;;;;;;5008352;28;20077;-91
2022/07/09 11:15:20;;;;;;;1.95;0.70;;;30.40;1.00;;;;;;5016668;28;20077;-91
2022/07/09 11:18:10;;;;;;;1.50;0.57;;;30.70;1.00;;;;;;5018987;28;20050;-87
2022/07/09 11:20:57;;;;;;;2.55;1.15;;;30.60;1.00;;;;;;5018630;28;20335;-91
2022/07/09 11:23:49;;;;;;;3.22;0.75;;;28.80;1.00;;;;;;5015984;28;20078;-91
2022/07/09 11:26:38;;;;;;;2.13;0.60;;;28.80;1.00;;;;;;5022553;28;20368;-91
2022/07/09 11:29:26;;;;;;;2.22;0.63;;;28.90;1.00;;;;;;5017084;28;20475;-88
2022/07/09 11:32:16;;;;;;;2.58;1.10;;;28.40;1.00;;;;;;5003179;28;20042;-92
2022/07/09 11:35:06;;;;;;;3.35;1.00;;;27.60;1.00;;;;;;5008772;28;20046;-91
2022/07/09 11:37:55;;;;;;;2.95;1.15;;;27.10;1.00;;;;;;5009166;28;20395;-91
2022/07/09 11:40:44;;;;;;;3.88;1.00;;;26.50;1.00;;;;;;5020081;28;20049;-90
2022/07/09 11:43:31;;;;;;;4.45;0.90;;;26.10;1.00;;;;;;5019292;28;20156;-91
2022/07/09 11:46:19;;;;;;;5.35;1.45;;;26.00;1.00;;;;;;5018219;28;20090;-91
2022/07/09 11:49:18;;;;;;;2.15;1.02;;;26.10;1.00;;;;;;5026436;28;20320;-90
2022/07/09 11:52:25;;;;;;;1.63;0.65;;;26.50;1.00;;;;;;5012669;28;20041;-92
2022/07/09 11:55:27;;;;;;;2.55;0.90;;;26.80;1.00;;;;;;5021259;28;20149;-92
2022/07/09 11:58:16;;;;;;;2.08;0.63;;;27.10;1.00;;;;;;5018286;28;20054;-90
2022/07/09 12:01:10;;;;;;;3.03;0.85;;;27.30;1.00;;;;;;5026862;28;20045;-91
2022/07/09 12:03:57;;;;;;;2.60;0.88;;;27.40;1.00;;;;;;5021505;28;20352;-91
2022/07/09 12:06:52;;;;;;;2.28;0.73;;;27.20;1.00;;;;;;5029407;28;20089;-92
2022/07/09 12:09:39;;;;;;;3.35;0.70;;;27.50;1.00;;;;;;5028626;28;20047;-89
2022/07/09 12:12:28;;;;;;;2.90;0.88;;;27.60;1.00;;;;;;5012715;28;20029;-90
2022/07/09 12:15:17;;;;;;;2.05;0.73;;;27.50;1.00;;;;;;5030507;28;20042;-86
2022/07/09 12:18:04;;;;;;;4.78;1.02;;;27.60;1.00;;;;;;5039145;28;20080;-91
2022/07/09 12:20:51;;;;;;;1.52;0.73;;;28.70;1.00;;;;;;5017140;28;20037;-91
2022/07/09 12:23:38;;;;;;;3.10;0.93;;;29.80;1.00;;;;;;5017245;28;20046;-92
2022/07/09 12:26:30;;;;;;;2.22;0.90;;;30.00;1.00;;;;;;5020966;28;20042;-90
2022/07/09 12:29:18;;;;;;;1.52;0.70;;;30.30;1.00;;;;;;5009228;28;20042;-89
2022/07/09 12:32:08;;;;;;;3.13;0.90;;;30.90;1.00;;;;;;5025253;28;20046;-89
2022/07/09 12:34:55;;;;;;;3.90;1.10;;;30.20;1.00;;;;;;5022512;28;20093;-90
2022/07/09 12:37:43;;;;;;;6.82;0.90;;;29.30;1.00;;;;;;5014481;28;20054;-91
2022/07/09 12:40:30;;;;;;;2.30;0.80;;;30.30;1.00;;;;;;5015734;28;20069;-92
2022/07/09 12:43:18;;;;;;;1.83;0.88;;;29.90;1.00;;;;;;5023193;28;20042;-89
2022/07/09 12:46:06;;;;;;;2.58;1.35;;;30.20;1.00;;;;;;5000428;28;20038;-91
2022/07/09 12:48:53;;;;;;;2.60;0.90;;;31.50;1.00;;;;;;5010605;28;20042;-90
2022/07/09 12:51:45;;;;;;;3.15;1.10;;;31.60;1.00;;;;;;5006425;28;20099;-92
2022/07/09 12:54:34;;;;;;;1.35;0.75;;;32.80;1.00;;;;;;5026269;28;20181;-92
2022/07/09 12:57:22;;;;;;;3.17;1.00;;;33.20;1.00;;;;;;5016269;28;20153;-90
2022/07/09 13:00:11;;;;;;;2.35;0.70;;;32.30;1.00;;;;;;4996848;28;20072;-91
2022/07/09 13:02:58;;;;;;;1.95;0.93;;;31.60;1.00;;;;;;5016561;28;20439;-92
2022/07/09 13:05:46;;;;;;;1.92;0.65;;;31.60;1.00;;;;;;5030766;28;20353;-92
2022/07/09 13:08:35;;;;;;;3.22;0.85;;;31.60;1.00;;;;;;5017162;28;20042;-92
2022/07/09 13:11:23;;;;;;;4.57;1.10;;;32.00;1.00;;;;;;5002684;28;20133;-92
2022/07/09 13:14:11;;;;;;;2.83;0.90;;;31.80;1.00;;;;;;5007590;28;20090;-91
2022/07/09 13:16:58;;;;;;;2.50;0.75;;;30.40;1.00;;;;;;4997638;28;20041;-89
2022/07/09 13:20:06;;;;;;;1.33;0.98;;;29.80;1.00;;;;;;5015532;28;20153;-89
2022/07/09 13:22:55;;;;;;;1.75;0.80;;;29.30;1.00;;;;;;5025658;28;20046;-90
2022/07/09 13:25:43;;;;;;;4.40;0.82;;;29.10;1.00;;;;;;5019926;28;20048;-87
2022/07/09 13:28:30;;;;;;;3.03;0.90;;;28.80;1.00;;;;;;5016447;28;20086;-92
2022/07/09 13:31:20;;;;;;;3.05;0.65;;;28.10;1.00;;;;;;5000023;28;20046;-90
2022/07/09 13:34:08;;;;;;;4.15;0.90;;;28.20;1.00;;;;;;5015397;28;20042;-91
2022/07/09 13:36:55;;;;;;;3.17;0.77;;;29.50;1.00;;;;;;5009919;28;20060;-91
2022/07/09 13:39:42;;;;;;;3.75;0.70;;;30.50;1.00;;;;;;5016530;28;20058;-91
2022/07/09 13:42:32;;;;;;;2.42;0.63;;;30.30;1.00;;;;;;5003045;28;20049;-91
2022/07/09 13:45:19;;;;;;;2.53;0.68;;;29.50;1.00;;;;;;5021474;28;20049;-90
2022/07/09 13:48:06;;;;;;;1.75;0.63;;;28.80;1.00;;;;;;5015835;28;20045;-90
2022/07/09 13:50:54;;;;;;;2.60;0.60;;;28.30;1.00;;;;;;5020534;28;20060;-91
2022/07/09 13:53:42;;;;;;;2.80;0.70;;;28.00;1.00;;;;;;5021608;28;20045;-91
2022/07/09 13:56:29;;;;;;;1.80;0.88;;;27.70;1.00;;;;;;5025561;28;20100;-92
2022/07/09 13:59:17;;;;;;;1.33;0.70;;;27.40;1.00;;;;;;5011843;28;20089;-90
2022/07/09 14:02:04;;;;;;;1.63;0.93;;;27.50;1.00;;;;;;5012552;28;20109;-90
2022/07/09 14:04:52;;;;;;;2.22;0.93;;;27.30;1.00;;;;;;5009888;28;20157;-92
2022/07/09 14:07:40;;;;;;;1.65;0.90;;;27.30;1.00;;;;;;5018546;28;20050;-91
2022/07/09 14:10:28;;;;;;;2.08;0.82;;;27.00;1.00;;;;;;5002351;28;20057;-91
2022/07/09 14:13:15;;;;;;;2.88;0.68;;;26.80;1.00;;;;;;5017736;28;20046;-90
2022/07/09 14:16:03;;;;;;;1.45;0.70;;;27.00;1.00;;;;;;5016499;28;20049;-91
2022/07/09 14:18:54;;;;;;;2.00;0.80;;;27.20;1.00;;;;;;5014948;28;20037;-91
2022/07/09 14:21:41;;;;;;;2.70;0.80;;;28.50;1.00;;;;;;5016162;28;20068;-90
2022/07/09 14:24:36;;;;;;;1.00;0.60;;;29.70;1.00;;;;;;5014330;28;20034;-91
2022/07/09 14:27:23;;;;;;;3.97;0.70;;;29.80;1.00;;;;;;4999868;28;20046;-91
2022/07/09 14:30:10;;;;;;;2.30;0.93;;;28.90;1.00;;;;;;5024250;28;20041;-90
2022/07/09 14:32:59;;;;;;;1.88;0.90;;;29.50;1.00;;;;;;4995666;28;20061;-90
2022/07/09 14:35:46;;;;;;;2.53;0.70;;;30.20;1.00;;;;;;5012927;28;20045;-91
2022/07/09 14:38:34;;;;;;;3.78;0.80;;;31.30;1.00;;;;;;5018071;28;20385;-90
2022/07/09 14:41:24;;;;;;;2.35;0.73;;;32.10;1.00;;;;;;5010553;28;20458;-90
2022/07/09 14:44:12;;;;;;;1.50;0.60;;;31.30;1.00;;;;;;4999445;28;20042;-90
2022/07/09 14:47:00;;;;;;;3.22;0.88;;;30.90;1.00;;;;;;5015694;28;20141;-89
2022/07/09 14:49:47;;;;;;;1.02;0.63;;;32.00;1.00;;;;;;5013377;28;20046;-90
2022/07/09 14:52:35;;;;;;;2.28;1.00;;;32.10;1.00;;;;;;5017249;28;20061;-90
2022/07/09 14:55:23;;;;;;;2.35;0.90;;;31.60;1.00;;;;;;5019450;28;20069;-91
2022/07/09 14:58:12;;;;;;;3.63;0.90;;;30.60;1.00;;;;;;5008562;28;20427;-90
2022/07/09 15:01:00;;;;;;;1.95;0.90;;;29.80;1.00;;;;;;5016618;28;20050;-91
2022/07/09 15:03:47;;;;;;;1.70;0.77;;;30.20;1.00;;;;;;5028663;28;20050;-85
2022/07/09 15:06:34;;;;;;;1.05;0.70;;;30.80;1.00;;;;;;5011731;28;20084;-91
2022/07/09 15:09:21;;;;;;;3.03;0.90;;;31.70;1.00;;;;;;5017429;28;20057;-91
2022/07/09 15:12:11;;;;;;;3.38;0.95;;;32.60;1.00;;;;;;5021435;28;20359;-91
2022/07/09 15:14:59;;;;;;;3.95;1.00;;;33.20;1.00;;;;;;5014437;28;20054;-91